createdAt,value
2023-01-23T00:01:18.140Z,53.30
2023-01-23T00:03:45.742Z,57.08
2023-01-23T00:06:15.778Z,51.50
2023-01-23T00:08:44.490Z,52.85
2023-01-23T00:11:14.744Z,51.97
2023-01-23T00:13:41.524Z,53.97
2023-01-23T00:16:12.000Z,52.72
2023-01-23T00:18:39.247Z,60.58
2023-01-23T00:21:08.341Z,61.17
2023-01-23T00:23:35.438Z,56.75
2023-01-23T00:26:04.916Z,60.00
2023-01-23T00:28:32.138Z,66.65
2023-01-23T00:31:09.393Z,69.88
2023-01-23T00:33:36.316Z,65.85
2023-01-23T00:36:03.737Z,59.88
2023-01-23T00:38:30.492Z,67.13
2023-01-23T00:40:57.477Z,72.65
2023-01-23T00:43:25.308Z,61.25
2023-01-23T00:45:51.996Z,62.45
2023-01-23T00:48:19.269Z,64.50
2023-01-23T00:50:46.870Z,83.22
2023-01-23T00:53:13.648Z,64.80
2023-01-23T00:55:41.437Z,67.25
2023-01-23T00:58:08.910Z,67.03
2023-01-23T01:00:37.165Z,82.28
2023-01-23T01:03:05.044Z,75.78
2023-01-23T01:05:32.545Z,75.60
2023-01-23T01:07:59.730Z,64.85
2023-01-23T01:10:30.394Z,67.80
2023-01-23T01:12:59.927Z,70.63
2023-01-23T01:15:28.760Z,79.40
2023-01-23T01:17:55.541Z,72.28
2023-01-23T01:20:23.866Z,73.88
2023-01-23T01:22:51.045Z,71.97
2023-01-23T01:25:18.663Z,81.75
2023-01-23T01:27:45.948Z,70.32
2023-01-23T01:30:13.182Z,64.13
2023-01-23T01:32:41.734Z,66.32
2023-01-23T01:35:09.602Z,70.60
2023-01-23T01:37:38.445Z,74.32
2023-01-23T01:40:07.284Z,58.58
2023-01-23T01:42:48.530Z,62.80
2023-01-23T01:45:52.774Z,63.60
2023-01-23T01:48:21.610Z,62.15
2023-01-23T01:50:48.666Z,63.97
2023-01-23T01:53:16.213Z,59.58
2023-01-23T01:55:43.534Z,66.32
2023-01-23T01:58:10.584Z,68.28
2023-01-23T02:00:37.317Z,66.22
2023-01-23T02:03:04.310Z,63.33
2023-01-23T02:05:37.867Z,73.35
2023-01-23T02:08:14.681Z,59.35
2023-01-23T02:10:43.088Z,72.63
2023-01-23T02:13:30.373Z,62.40
2023-01-23T02:15:59.354Z,76.05
2023-01-23T02:18:29.831Z,71.27
2023-01-23T02:20:58.674Z,69.72
2023-01-23T02:23:34.631Z,63.80
2023-01-23T02:26:05.559Z,74.43
2023-01-23T02:28:42.614Z,70.80
2023-01-23T02:31:10.392Z,71.68
2023-01-23T02:33:37.148Z,78.18
2023-01-23T02:36:05.545Z,80.55
2023-01-23T02:39:04.325Z,80.75
2023-01-23T02:41:34.084Z,65.20
2023-01-23T02:44:07.182Z,70.50
2023-01-23T02:46:34.227Z,68.95
2023-01-23T02:49:01.296Z,70.57
2023-01-23T02:51:28.366Z,77.85
2023-01-23T02:53:56.288Z,67.85
2023-01-23T02:56:23.383Z,76.57
2023-01-23T02:59:11.107Z,74.07
2023-01-23T03:01:37.834Z,71.60
2023-01-23T03:04:06.376Z,91.28
2023-01-23T03:06:38.383Z,80.70
2023-01-23T03:09:08.464Z,72.85
2023-01-23T03:11:36.815Z,78.45
2023-01-23T03:14:04.175Z,89.95
2023-01-23T03:16:32.827Z,83.03
2023-01-23T03:19:04.982Z,79.97
2023-01-23T03:21:33.250Z,76.93
2023-01-23T03:24:00.394Z,76.00
2023-01-23T03:26:27.220Z,82.05
2023-01-23T03:29:17.492Z,64.53
2023-01-23T03:31:44.445Z,62.75
2023-01-23T03:34:12.433Z,70.47
2023-01-23T03:36:41.086Z,73.95
2023-01-23T03:39:27.790Z,72.95
2023-01-23T03:41:54.836Z,67.18
2023-01-23T03:44:21.625Z,63.88
2023-01-23T03:46:50.225Z,66.45
2023-01-23T03:49:17.784Z,78.60
2023-01-23T03:51:45.122Z,69.63
2023-01-23T03:54:12.780Z,92.47
2023-01-23T03:56:39.615Z,81.18
2023-01-23T03:59:09.386Z,81.35
2023-01-23T04:01:38.319Z,68.75
2023-01-23T04:04:06.337Z,79.53
2023-01-23T04:06:33.213Z,77.32
2023-01-23T04:09:00.200Z,73.45
2023-01-23T04:11:27.053Z,79.28
2023-01-23T04:13:54.813Z,73.15
2023-01-23T04:16:22.870Z,78.88
2023-01-23T04:18:50.862Z,74.53
2023-01-23T04:21:18.334Z,74.25
2023-01-23T04:23:45.480Z,76.18
2023-01-23T04:26:13.035Z,78.25
2023-01-23T04:28:39.885Z,81.28
2023-01-23T04:31:09.270Z,85.25
2023-01-23T04:33:39.355Z,87.63
2023-01-23T04:38:34.807Z,78.13
2023-01-23T04:41:01.963Z,80.57
2023-01-23T04:43:28.996Z,84.10
2023-01-23T04:45:56.933Z,92.47
2023-01-23T04:48:24.638Z,84.32
2023-01-23T04:50:51.723Z,81.90
2023-01-23T04:53:19.106Z,75.32
2023-01-23T04:55:49.726Z,93.15
2023-01-23T04:58:18.942Z,77.18
2023-01-23T05:00:48.528Z,83.90
2023-01-23T05:03:16.008Z,90.50
2023-01-23T05:05:44.292Z,83.10
2023-01-23T05:08:14.450Z,93.88
2023-01-23T05:10:41.455Z,101.03
2023-01-23T05:13:10.279Z,94.90
2023-01-23T05:15:37.202Z,93.57
2023-01-23T05:18:04.281Z,86.78
2023-01-23T05:20:31.245Z,91.15
2023-01-23T05:23:05.456Z,95.28
2023-01-23T05:25:32.348Z,88.57
2023-01-23T05:27:59.852Z,89.30
2023-01-23T05:30:26.814Z,103.78
2023-01-23T05:32:53.825Z,95.53
2023-01-23T05:35:21.743Z,92.57
2023-01-23T05:37:51.555Z,100.60
2023-01-23T05:42:48.421Z,97.78
2023-01-23T05:45:16.989Z,97.35
2023-01-23T05:47:44.196Z,96.43
2023-01-23T05:50:17.910Z,102.95
2023-01-23T05:52:46.412Z,99.60
2023-01-23T05:55:13.610Z,104.85
2023-01-23T05:57:40.449Z,81.80
2023-01-23T06:00:08.269Z,100.57
2023-01-23T06:02:35.678Z,95.53
2023-01-23T06:05:02.708Z,94.90
2023-01-23T06:07:29.927Z,99.15
2023-01-23T06:09:58.044Z,104.57
2023-01-23T06:12:25.318Z,110.88
2023-01-23T06:14:54.438Z,90.75
2023-01-23T06:17:21.190Z,111.30
2023-01-23T06:19:48.533Z,91.53
2023-01-23T06:22:15.334Z,105.18
2023-01-23T06:24:42.348Z,113.53
2023-01-23T06:27:09.472Z,100.93
2023-01-23T06:29:37.423Z,99.18
2023-01-23T06:32:04.888Z,110.50
2023-01-23T06:34:31.920Z,117.85
2023-01-23T06:37:01.358Z,97.18
2023-01-23T06:39:30.165Z,112.03
2023-01-23T06:41:57.336Z,100.32
2023-01-23T06:44:25.382Z,103.90
2023-01-23T06:46:57.223Z,104.97
2023-01-23T06:49:27.358Z,106.63
2023-01-23T06:51:55.417Z,97.97
2023-01-23T06:54:25.025Z,97.25
2023-01-23T06:56:52.993Z,107.93
2023-01-23T06:59:20.078Z,94.25
2023-01-23T07:01:54.670Z,94.00
2023-01-23T07:04:21.493Z,108.38
2023-01-23T07:06:48.499Z,88.95
2023-01-23T07:09:15.531Z,93.60
2023-01-23T07:11:42.568Z,107.28
2023-01-23T07:14:10.428Z,101.75
2023-01-23T07:16:38.408Z,96.85
2023-01-23T07:19:08.240Z,102.22
2023-01-23T07:24:02.793Z,88.97
2023-01-23T07:26:30.665Z,110.10
2023-01-23T07:29:00.198Z,93.15
2023-01-23T07:31:33.205Z,105.53
2023-01-23T07:33:59.908Z,93.50
2023-01-23T07:36:26.992Z,99.95
2023-01-23T07:38:56.459Z,110.10
2023-01-23T07:41:23.492Z,100.00
2023-01-23T07:43:54.716Z,96.10
2023-01-23T07:46:23.666Z,97.88
2023-01-23T07:48:51.027Z,76.32
2023-01-23T07:51:17.983Z,89.28
2023-01-23T07:53:44.903Z,115.22
2023-01-23T07:56:13.395Z,96.57
2023-01-23T07:58:41.531Z,94.18
2023-01-23T08:01:10.751Z,98.72
2023-01-23T08:03:37.671Z,97.75
2023-01-23T08:06:04.834Z,98.53
2023-01-23T08:08:31.825Z,104.18
2023-01-23T08:10:59.044Z,103.50
2023-01-23T08:13:25.860Z,103.18
2023-01-23T08:15:57.344Z,88.85
2023-01-23T08:18:25.793Z,90.68
2023-01-23T08:21:03.061Z,115.30
2023-01-23T08:23:33.505Z,105.72
2023-01-23T08:26:03.235Z,98.55
2023-01-23T08:28:30.827Z,115.22
2023-01-23T08:31:06.691Z,95.75
2023-01-23T08:33:35.203Z,116.32
2023-01-23T08:36:04.377Z,96.15
2023-01-23T08:38:31.931Z,97.95
2023-01-23T08:41:01.457Z,94.85
2023-01-23T08:43:33.367Z,97.30
2023-01-23T08:46:03.235Z,98.97
2023-01-23T08:51:08.065Z,84.95
2023-01-23T08:53:36.802Z,79.80
2023-01-23T08:56:06.149Z,84.22
2023-01-23T08:58:33.309Z,81.35
2023-01-23T09:01:00.620Z,91.80
2023-01-23T09:03:28.458Z,89.85
2023-01-23T09:06:02.209Z,67.57
2023-01-23T09:08:30.196Z,82.22
2023-01-23T09:11:01.449Z,69.20
2023-01-23T09:13:28.618Z,87.97
2023-01-23T09:15:58.431Z,76.35
2023-01-23T09:20:55.842Z,73.88
2023-01-23T09:23:23.395Z,63.22
2023-01-23T09:25:51.353Z,76.97
2023-01-23T09:28:18.465Z,67.00
2023-01-23T09:30:45.234Z,63.85
2023-01-23T09:33:14.458Z,67.88
2023-01-23T09:35:41.176Z,76.68
2023-01-23T09:38:09.068Z,68.45
2023-01-23T09:40:45.775Z,64.22
2023-01-23T09:43:34.304Z,69.88
2023-01-23T09:46:02.160Z,62.88
2023-01-23T09:48:45.515Z,68.25
2023-01-23T09:51:24.715Z,64.57
2023-01-23T09:53:58.126Z,50.78
2023-01-23T09:56:44.824Z,67.82
2023-01-23T09:59:38.880Z,65.80
2023-01-23T10:02:22.046Z,58.35
2023-01-23T10:04:51.391Z,59.88
2023-01-23T10:07:33.235Z,61.38
2023-01-23T10:10:29.557Z,56.92
2023-01-23T10:13:02.697Z,69.78
2023-01-23T10:15:32.284Z,65.28
2023-01-23T10:18:22.777Z,66.78
2023-01-23T10:21:05.863Z,63.03
2023-01-23T10:23:53.004Z,59.00
2023-01-23T10:26:23.820Z,83.38
2023-01-23T10:28:56.282Z,72.20
2023-01-23T10:31:35.792Z,65.80
2023-01-23T10:34:17.611Z,55.53
2023-01-23T10:36:56.722Z,60.17
2023-01-23T10:39:40.005Z,68.30
2023-01-23T10:42:16.616Z,64.00
2023-01-23T10:44:47.016Z,70.78
2023-01-23T10:47:37.091Z,63.65
2023-01-23T10:50:06.943Z,68.18
2023-01-23T10:52:37.041Z,64.53
2023-01-23T10:55:28.083Z,61.55
2023-01-23T10:58:03.128Z,58.35
2023-01-23T11:00:39.633Z,66.38
2023-01-23T11:03:21.920Z,60.55
2023-01-23T11:05:56.898Z,60.72
2023-01-23T11:08:29.607Z,59.42
2023-01-23T11:11:15.689Z,62.22
2023-01-23T11:13:47.037Z,59.70
2023-01-23T11:16:23.910Z,54.90
2023-01-23T11:19:03.896Z,56.40
2023-01-23T11:24:39.913Z,48.22
2023-01-23T11:27:14.883Z,59.08
2023-01-23T11:30:01.164Z,54.40
2023-01-23T11:32:32.065Z,50.67
2023-01-23T11:35:19.978Z,53.97
2023-01-23T11:37:46.966Z,59.83
2023-01-23T11:40:18.174Z,45.97
2023-01-23T11:42:45.679Z,55.42
2023-01-23T11:45:43.686Z,43.35
2023-01-23T11:48:19.791Z,47.30
2023-01-23T11:50:55.975Z,53.17
2023-01-23T11:53:50.082Z,46.63
2023-01-23T11:56:35.080Z,54.97
2023-01-23T11:59:47.237Z,67.28
2023-01-23T12:02:19.803Z,73.43
2023-01-23T12:05:14.060Z,56.47
2023-01-23T12:08:16.218Z,57.28
2023-01-23T12:10:49.953Z,67.78
2023-01-23T12:13:45.674Z,58.70
2023-01-23T12:16:27.322Z,56.50
2023-01-23T12:19:16.367Z,60.50
2023-01-23T12:22:01.602Z,57.43
2023-01-23T12:24:31.456Z,54.47
2023-01-23T12:30:09.279Z,58.58
2023-01-23T12:33:17.354Z,55.00
2023-01-23T12:35:47.297Z,53.33
2023-01-23T12:38:23.198Z,51.35
2023-01-23T12:41:07.487Z,46.45
2023-01-23T12:43:34.295Z,47.13
2023-01-23T12:46:11.799Z,49.75
2023-01-23T12:48:47.032Z,48.42
2023-01-23T12:51:50.799Z,51.30
2023-01-23T12:54:29.102Z,61.00
2023-01-23T12:56:59.393Z,53.72
2023-01-23T12:59:50.206Z,61.90
2023-01-23T13:02:33.994Z,57.88
2023-01-23T13:05:09.071Z,61.28
2023-01-23T13:07:42.817Z,50.00
2023-01-23T13:10:51.346Z,48.80
2023-01-23T13:13:21.390Z,71.05
2023-01-23T13:16:19.330Z,48.42
2023-01-23T13:19:16.291Z,57.80
2023-01-23T13:22:27.424Z,66.13
2023-01-23T13:25:13.044Z,76.53
2023-01-23T13:27:49.360Z,61.08
2023-01-23T13:30:39.355Z,48.15
2023-01-23T13:33:06.368Z,52.33
2023-01-23T13:35:44.539Z,49.15
2023-01-23T13:38:38.983Z,47.75
2023-01-23T13:41:11.384Z,49.15
2023-01-23T13:43:50.678Z,45.20
2023-01-23T14:21:57.822Z,50.45
2023-01-23T14:24:44.877Z,55.90
2023-01-23T14:27:53.275Z,50.78
2023-01-23T14:30:24.878Z,53.47
2023-01-23T14:32:52.968Z,50.97
2023-01-23T14:35:26.112Z,52.35
2023-01-23T14:37:55.490Z,49.65
2023-01-23T14:40:28.280Z,50.38
2023-01-23T14:43:03.687Z,55.88
2023-01-23T14:45:33.942Z,50.40
2023-01-23T14:48:06.667Z,52.03
2023-01-23T14:50:34.335Z,43.05
2023-01-23T14:53:06.983Z,46.53
2023-01-23T14:55:40.730Z,53.80
2023-01-23T14:58:13.020Z,45.28
2023-01-23T15:00:41.487Z,53.10
2023-01-23T15:03:12.524Z,47.75
2023-01-23T15:05:40.986Z,67.90
2023-01-23T15:08:24.478Z,55.97
2023-01-23T15:10:53.605Z,60.20
2023-01-23T15:13:24.500Z,53.67
2023-01-23T15:16:01.272Z,48.15
2023-01-23T15:18:30.560Z,57.60
2023-01-23T15:21:08.956Z,45.75
2023-01-23T15:23:40.873Z,50.45
2023-01-23T15:26:25.615Z,41.70
2023-01-23T15:29:00.267Z,41.50
2023-01-23T15:31:34.647Z,44.42
2023-01-23T15:34:16.886Z,36.22
2023-01-23T15:37:13.228Z,47.88
2023-01-23T15:39:55.589Z,45.00
2023-01-23T15:42:29.970Z,40.47
2023-01-23T15:45:01.165Z,38.90
2023-01-23T15:47:34.668Z,39.08
2023-01-23T15:50:01.820Z,42.25
2023-01-23T15:52:44.117Z,39.45
2023-01-23T15:55:11.813Z,37.05
2023-01-23T15:57:38.665Z,37.45
2023-01-23T16:00:15.844Z,32.67
2023-01-23T16:02:56.379Z,38.05
2023-01-23T16:05:30.956Z,30.80
2023-01-23T16:08:20.774Z,45.25
2023-01-23T16:13:19.668Z,38.47
2023-01-23T16:15:49.924Z,40.30
2023-01-23T16:18:17.061Z,33.08
2023-01-23T16:21:07.173Z,24.67
2023-01-23T16:23:47.128Z,25.75
2023-01-23T16:26:21.259Z,32.58
2023-01-23T16:28:49.197Z,28.52
2023-01-23T16:31:19.869Z,26.15
2023-01-23T16:33:48.945Z,32.28
2023-01-23T16:36:19.696Z,33.88
2023-01-23T16:38:52.519Z,34.85
2023-01-23T16:41:20.306Z,28.02
2023-01-23T16:43:47.499Z,33.08
2023-01-23T16:46:17.613Z,35.38
2023-01-23T16:48:46.697Z,31.08
2023-01-23T16:51:23.252Z,36.70
2023-01-23T16:53:53.875Z,26.52
2023-01-23T16:56:29.279Z,23.63
2023-01-23T16:58:57.469Z,29.95
2023-01-23T17:01:36.900Z,36.10
2023-01-23T17:04:04.491Z,25.17
2023-01-23T17:06:35.366Z,33.10
2023-01-23T17:09:08.674Z,32.60
2023-01-23T17:11:55.975Z,32.97
2023-01-23T17:14:30.747Z,35.55
2023-01-23T17:17:10.111Z,39.10
2023-01-23T17:19:47.085Z,35.60
2023-01-23T17:22:30.367Z,32.08
2023-01-23T17:25:00.504Z,37.05
2023-01-23T17:27:27.431Z,35.22
2023-01-23T17:29:54.099Z,34.40
2023-01-23T17:32:36.835Z,33.45
2023-01-23T17:35:08.118Z,29.67
2023-01-23T17:37:45.246Z,33.67
2023-01-23T17:40:16.645Z,38.40
2023-01-23T17:42:56.025Z,36.63
2023-01-23T17:45:28.159Z,38.30
2023-01-23T17:47:55.761Z,44.00
2023-01-23T17:50:25.628Z,42.70
2023-01-23T17:55:28.784Z,37.20
2023-01-23T17:57:56.821Z,37.92
2023-01-23T18:00:24.057Z,39.40
2023-01-23T18:03:07.847Z,40.20
2023-01-23T18:05:35.629Z,39.67
2023-01-23T18:08:02.715Z,37.00
2023-01-23T18:10:35.514Z,33.95
2023-01-23T18:13:35.345Z,38.70
2023-01-23T18:21:56.611Z,33.03
2023-01-23T18:24:28.389Z,34.20
2023-01-23T18:27:25.523Z,35.95
2023-01-23T18:30:31.054Z,31.02
2023-01-23T18:33:07.038Z,28.75
2023-01-23T18:36:12.679Z,24.95
2023-01-23T18:38:54.349Z,23.30
2023-01-23T18:41:30.724Z,30.10
2023-01-23T18:44:18.023Z,29.30
2023-01-23T18:46:55.494Z,27.23
2023-01-23T18:49:32.268Z,24.73
2023-01-23T18:52:18.122Z,27.83
2023-01-23T18:54:51.518Z,46.33
2023-01-23T18:57:38.089Z,29.45
2023-01-23T19:00:12.726Z,26.33
2023-01-23T19:02:50.206Z,28.15
2023-01-23T19:05:28.696Z,41.00
2023-01-23T19:07:59.979Z,30.48
2023-01-23T19:10:32.500Z,22.67
2023-01-23T19:13:29.568Z,25.55
2023-01-23T19:16:08.426Z,30.88
2023-01-23T19:18:50.499Z,31.50
2023-01-23T19:21:28.147Z,32.25
2023-01-23T19:24:03.647Z,39.20
2023-01-23T19:26:35.869Z,44.03
2023-01-23T19:29:20.863Z,35.50
2023-01-23T19:32:06.031Z,47.30
2023-01-23T19:34:34.925Z,38.65
2023-01-23T19:37:05.545Z,37.35
2023-01-23T19:39:44.111Z,36.67
2023-01-23T19:42:33.805Z,39.20
2023-01-23T19:47:53.429Z,42.53
2023-01-23T19:50:23.517Z,37.97
2023-01-23T19:52:56.767Z,40.85
2023-01-23T19:55:36.172Z,42.95
2023-01-23T19:58:02.935Z,38.80
2023-01-23T20:00:48.934Z,38.42
2023-01-23T20:03:18.816Z,39.20
2023-01-23T20:08:14.607Z,39.72
2023-01-23T20:10:47.028Z,42.10
2023-01-23T20:13:16.917Z,36.25
2023-01-23T20:18:38.393Z,33.50
2023-01-23T20:23:40.480Z,36.08
2023-01-23T20:26:07.481Z,29.08
2023-01-23T20:28:34.595Z,32.70
2023-01-23T20:31:32.495Z,29.05
2023-01-23T20:36:28.747Z,29.83
2023-01-23T20:38:56.895Z,29.30
2023-01-23T20:41:23.691Z,26.58
2023-01-23T20:46:28.041Z,35.45
2023-01-23T20:48:55.837Z,30.70
2023-01-23T20:51:22.444Z,31.75
2023-01-23T20:53:50.295Z,36.22
2023-01-23T20:56:27.498Z,30.90
2023-01-23T20:59:16.379Z,29.52
2023-01-23T21:04:26.301Z,33.67
2023-01-23T21:06:55.174Z,33.35
2023-01-23T21:09:24.993Z,35.05
2023-01-23T21:14:35.501Z,34.83
2023-01-23T21:17:08.914Z,36.03
2023-01-23T21:19:37.537Z,33.80
2023-01-23T21:22:10.344Z,39.30
2023-01-23T21:24:42.989Z,38.85
2023-01-23T21:27:15.686Z,38.38
2023-01-23T21:29:48.419Z,39.10
2023-01-23T21:32:16.270Z,40.33
2023-01-23T21:34:45.069Z,46.30
2023-01-23T21:37:12.957Z,40.85
2023-01-23T21:39:46.246Z,39.30
2023-01-23T21:44:52.583Z,45.70
2023-01-23T21:47:27.290Z,42.80
2023-01-23T21:49:54.050Z,42.70
2023-01-23T21:52:23.080Z,41.42
2023-01-23T21:54:59.973Z,29.97
2023-01-23T21:57:27.807Z,45.00
2023-01-23T22:00:15.032Z,46.45
2023-01-23T22:02:49.774Z,45.58
2023-01-23T22:05:16.823Z,45.78
2023-01-23T22:07:43.923Z,43.90
2023-01-23T22:10:16.111Z,49.63
2023-01-23T22:12:42.877Z,48.55
2023-01-23T22:15:12.054Z,46.92
2023-01-23T22:17:41.071Z,52.47
2023-01-23T22:20:11.885Z,45.45
2023-01-23T22:22:54.035Z,52.10
2023-01-23T22:25:22.259Z,49.67
2023-01-23T22:27:50.550Z,52.17
2023-01-23T22:30:44.297Z,47.58
2023-01-23T22:38:39.467Z,51.35
2023-01-23T22:41:07.194Z,48.42
2023-01-23T22:43:35.216Z,42.78
2023-01-23T22:46:17.395Z,92.95
2023-01-23T22:48:46.549Z,49.50
2023-01-23T22:51:25.114Z,47.90
2023-01-23T22:53:53.438Z,51.55
2023-01-23T22:56:20.970Z,48.65
2023-01-23T22:58:52.439Z,56.63
2023-01-23T23:01:23.409Z,52.10
2023-01-23T23:03:57.498Z,53.50
2023-01-23T23:06:25.608Z,61.33
2023-01-23T23:11:35.175Z,49.85
2023-01-23T23:14:03.239Z,55.30
2023-01-23T23:16:32.088Z,47.58
2023-01-23T23:19:03.508Z,43.50
2023-01-23T23:21:36.107Z,49.15
2023-01-23T23:24:07.568Z,47.38
2023-01-23T23:26:40.299Z,61.33
2023-01-23T23:29:08.246Z,53.75
2023-01-23T23:31:51.964Z,53.58
2023-01-23T23:34:20.084Z,51.85
2023-01-23T23:36:53.300Z,57.08
2023-01-23T23:39:22.001Z,55.08
2023-01-23T23:41:53.954Z,53.28
2023-01-23T23:44:21.861Z,55.25
2023-01-23T23:46:57.964Z,54.90
2023-01-23T23:49:26.338Z,60.83
2023-01-23T23:51:58.687Z,63.08
2023-01-23T23:54:25.582Z,54.78
2023-01-23T23:56:53.478Z,60.42
2023-01-23T23:59:21.258Z,62.28
